createdAt,value
2017-04-16T00:00:11.385Z,65.50
2017-04-16T00:01:09.645Z,65.40
2017-04-16T00:02:07.886Z,65.20
2017-04-16T00:03:06.149Z,65.20
2017-04-16T00:04:04.409Z,65.70
2017-04-16T00:05:02.701Z,65.00
2017-04-16T00:06:00.961Z,64.90
2017-04-16T00:06:59.221Z,65.00
2017-04-16T00:07:57.510Z,65.10
2017-04-16T00:08:55.797Z,65.10
2017-04-16T00:09:54.064Z,65.10
2017-04-16T00:10:52.301Z,65.10
2017-04-16T00:11:50.569Z,65.10
2017-04-16T00:12:48.826Z,65.10
2017-04-16T00:13:47.054Z,65.00
2017-04-16T00:14:45.316Z,65.20
2017-04-16T00:15:44.370Z,65.10
2017-04-16T00:16:42.678Z,65.20
2017-04-16T00:17:40.955Z,65.30
2017-04-16T00:18:39.233Z,65.10
2017-04-16T00:19:37.501Z,65.00
2017-04-16T00:20:35.727Z,64.80
2017-04-16T00:21:33.988Z,64.70
2017-04-16T00:22:32.245Z,64.70
2017-04-16T00:23:30.532Z,64.70
2017-04-16T00:24:29.515Z,64.80
2017-04-16T00:25:27.781Z,64.90
2017-04-16T00:26:26.048Z,64.70
2017-04-16T00:27:24.329Z,64.60
2017-04-16T00:28:22.587Z,64.50
2017-04-16T00:29:20.843Z,64.40
2017-04-16T00:30:19.077Z,64.40
2017-04-16T00:31:17.349Z,64.40
2017-04-16T00:32:15.610Z,64.60
2017-04-16T00:33:13.904Z,64.80
2017-04-16T00:34:12.146Z,64.90
2017-04-16T00:35:10.415Z,64.80
2017-04-16T00:36:08.679Z,64.60
2017-04-16T00:37:06.930Z,64.50
2017-04-16T00:38:05.238Z,64.50
2017-04-16T00:39:04.385Z,64.40
2017-04-16T00:40:02.619Z,64.40
2017-04-16T00:41:01.614Z,64.30
2017-04-16T00:41:59.917Z,64.30
2017-04-16T00:42:58.170Z,64.50
2017-04-16T00:43:56.397Z,64.60
2017-04-16T00:44:54.649Z,65.20
2017-04-16T00:45:52.921Z,64.60
2017-04-16T00:46:51.982Z,64.50
2017-04-16T00:47:50.280Z,64.50
2017-04-16T00:48:48.512Z,64.30
2017-04-16T00:49:46.753Z,64.30
2017-04-16T00:50:45.246Z,64.10
2017-04-16T00:51:43.462Z,64.10
2017-04-16T00:52:41.714Z,64.00
2017-04-16T00:53:39.936Z,64.00
2017-04-16T00:54:38.920Z,64.00
2017-04-16T00:55:37.174Z,64.00
2017-04-16T00:56:35.433Z,63.90
2017-04-16T00:57:33.691Z,63.90
2017-04-16T00:58:31.962Z,64.20
2017-04-16T00:59:30.242Z,64.90
2017-04-16T01:00:33.852Z,64.20
2017-04-16T01:01:37.686Z,64.00
2017-04-16T01:02:43.652Z,64.50
2017-04-16T01:03:41.933Z,63.80
2017-04-16T01:04:40.191Z,63.90
2017-04-16T01:05:38.489Z,64.00
2017-04-16T01:06:36.764Z,63.90
2017-04-16T01:07:35.098Z,64.00
2017-04-16T01:08:33.423Z,64.80
2017-04-16T01:09:31.757Z,64.00
2017-04-16T01:10:30.057Z,64.10
2017-04-16T01:11:28.426Z,64.20
2017-04-16T01:12:26.762Z,64.20
2017-04-16T01:13:25.063Z,64.10
2017-04-16T01:14:23.318Z,64.10
2017-04-16T01:15:22.037Z,64.00
2017-04-16T01:16:20.382Z,64.00
2017-04-16T01:17:18.666Z,64.20
2017-04-16T01:18:16.938Z,64.30
2017-04-16T01:19:15.241Z,64.20
2017-04-16T01:20:13.509Z,64.40
2017-04-16T01:21:11.757Z,64.40
2017-04-16T01:22:10.812Z,64.30
2017-04-16T01:23:09.077Z,64.40
2017-04-16T01:24:07.354Z,64.60
2017-04-16T01:25:05.694Z,64.80
2017-04-16T01:26:04.021Z,64.80
2017-04-16T01:27:02.316Z,64.80
2017-04-16T01:28:00.588Z,64.90
2017-04-16T01:28:58.922Z,65.10
2017-04-16T01:29:57.192Z,65.10
2017-04-16T01:30:56.237Z,65.30
2017-04-16T01:31:53.786Z,65.30
2017-04-16T01:32:52.052Z,65.40
2017-04-16T01:33:51.071Z,65.50
2017-04-16T01:34:49.337Z,65.50
2017-04-16T01:35:47.597Z,65.70
2017-04-16T01:36:45.916Z,65.70
2017-04-16T01:37:44.209Z,65.90
2017-04-16T01:38:42.492Z,66.10
2017-04-16T01:39:40.768Z,66.10
2017-04-16T01:40:39.504Z,66.30
2017-04-16T01:41:37.796Z,66.40
2017-04-16T01:42:36.857Z,66.60
2017-04-16T01:43:35.366Z,66.60
2017-04-16T01:44:33.633Z,66.70
2017-04-16T01:45:31.952Z,67.40
2017-04-16T01:46:30.251Z,66.90
2017-04-16T01:47:28.562Z,66.90
2017-04-16T01:48:26.887Z,67.10
2017-04-16T01:49:25.159Z,67.30
2017-04-16T01:50:23.427Z,67.30
2017-04-16T01:51:21.701Z,67.40
2017-04-16T01:52:20.026Z,67.50
2017-04-16T01:53:18.278Z,67.60
2017-04-16T01:54:16.627Z,67.70
2017-04-16T01:55:14.928Z,67.80
2017-04-16T01:56:13.221Z,67.80
2017-04-16T01:57:11.497Z,68.00
2017-04-16T01:58:09.753Z,68.00
2017-04-16T01:59:08.073Z,68.20
2017-04-16T02:00:06.389Z,68.30
2017-04-16T02:01:04.665Z,68.40
2017-04-16T02:02:03.012Z,68.40
2017-04-16T02:03:01.286Z,68.60
2017-04-16T02:03:59.561Z,69.20
2017-04-16T02:04:57.907Z,68.70
2017-04-16T02:05:56.187Z,68.70
2017-04-16T02:06:55.231Z,68.80
2017-04-16T02:07:53.569Z,68.70
2017-04-16T02:08:51.868Z,68.80
2017-04-16T02:09:50.176Z,68.90
2017-04-16T02:10:48.448Z,69.00
2017-04-16T02:11:46.729Z,69.00
2017-04-16T02:12:44.996Z,69.10
2017-04-16T02:13:43.328Z,69.20
2017-04-16T02:14:41.638Z,69.10
2017-04-16T02:15:39.941Z,69.20
2017-04-16T02:16:38.233Z,69.30
2017-04-16T02:17:37.323Z,69.40
2017-04-16T02:18:35.613Z,69.50
2017-04-16T02:19:34.067Z,69.50
2017-04-16T02:20:32.332Z,69.60
2017-04-16T02:21:30.649Z,69.70
2017-04-16T02:22:28.942Z,69.80
2017-04-16T02:23:27.254Z,70.00
2017-04-16T02:24:25.576Z,70.10
2017-04-16T02:25:23.902Z,70.20
2017-04-16T02:26:22.137Z,70.20
2017-04-16T02:27:20.457Z,70.30
2017-04-16T02:28:18.753Z,70.40
2017-04-16T02:29:17.486Z,70.40
2017-04-16T02:30:15.769Z,70.40
2017-04-16T02:31:14.032Z,70.40
2017-04-16T02:32:12.327Z,70.40
2017-04-16T02:33:11.353Z,70.40
2017-04-16T02:34:09.678Z,70.40
2017-04-16T02:35:08.198Z,70.50
2017-04-16T02:36:06.478Z,70.50
2017-04-16T02:37:04.785Z,70.50
2017-04-16T02:38:03.076Z,70.50
2017-04-16T02:39:01.421Z,70.50
2017-04-16T02:39:59.712Z,70.40
2017-04-16T02:40:58.037Z,70.40
2017-04-16T02:41:57.046Z,70.40
2017-04-16T02:42:55.358Z,70.40
2017-04-16T02:43:53.660Z,70.50
2017-04-16T02:44:51.966Z,70.60
2017-04-16T02:45:50.261Z,70.70
2017-04-16T02:46:48.589Z,70.60
2017-04-16T02:47:46.854Z,70.70
2017-04-16T02:48:45.205Z,70.80
2017-04-16T02:49:43.493Z,70.90
2017-04-16T02:50:41.769Z,70.90
2017-04-16T02:51:40.052Z,70.90
2017-04-16T02:52:38.390Z,71.00
2017-04-16T02:53:36.665Z,71.00
2017-04-16T02:54:34.948Z,71.10
2017-04-16T02:55:33.229Z,71.00
2017-04-16T02:56:31.517Z,71.10
2017-04-16T02:57:30.537Z,71.20
2017-04-16T02:58:28.812Z,71.20
2017-04-16T02:59:27.089Z,71.20
2017-04-16T03:00:25.377Z,71.20
2017-04-16T03:01:23.665Z,71.30
2017-04-16T03:02:21.950Z,71.30
2017-04-16T03:03:20.256Z,71.40
2017-04-16T03:04:18.529Z,71.50
2017-04-16T03:05:16.834Z,71.60
2017-04-16T03:06:15.121Z,71.60
2017-04-16T03:07:13.401Z,71.60
2017-04-16T03:08:11.713Z,71.60
2017-04-16T03:09:10.002Z,71.70
2017-04-16T03:10:08.302Z,71.60
2017-04-16T03:11:06.601Z,71.60
2017-04-16T03:12:04.869Z,71.60
2017-04-16T03:13:03.209Z,71.70
2017-04-16T03:14:01.509Z,71.80
2017-04-16T03:14:59.797Z,72.00
2017-04-16T03:15:58.077Z,72.20
2017-04-16T03:16:56.365Z,72.20
2017-04-16T03:17:54.665Z,72.10
2017-04-16T03:18:52.960Z,72.10
2017-04-16T03:19:51.231Z,71.70
2017-04-16T03:20:49.503Z,72.00
2017-04-16T03:21:47.789Z,72.10
2017-04-16T03:22:46.069Z,72.20
2017-04-16T03:23:44.369Z,72.20
2017-04-16T03:24:43.372Z,72.20
2017-04-16T03:25:42.464Z,72.20
2017-04-16T03:26:40.730Z,72.20
2017-04-16T03:27:39.010Z,72.20
2017-04-16T03:28:37.285Z,72.20
2017-04-16T03:29:35.570Z,72.20
2017-04-16T03:30:33.869Z,72.10
2017-04-16T03:31:32.173Z,72.20
2017-04-16T03:32:30.760Z,72.30
2017-04-16T03:33:29.081Z,72.30
2017-04-16T03:34:27.366Z,72.30
2017-04-16T03:35:25.642Z,72.30
2017-04-16T03:36:23.913Z,73.00
2017-04-16T03:37:22.225Z,72.40
2017-04-16T03:38:20.530Z,72.40
2017-04-16T03:39:18.829Z,72.50
2017-04-16T03:40:17.101Z,72.50
2017-04-16T03:41:15.393Z,72.40
2017-04-16T03:42:13.665Z,72.40
2017-04-16T03:43:13.134Z,72.40
2017-04-16T03:44:11.433Z,72.40
2017-04-16T03:45:09.751Z,72.50
2017-04-16T03:46:08.100Z,72.50
2017-04-16T03:47:06.389Z,72.50
2017-04-16T03:48:04.665Z,72.60
2017-04-16T03:49:02.949Z,72.70
2017-04-16T03:50:01.222Z,72.60
2017-04-16T03:50:59.521Z,72.60
2017-04-16T03:51:58.521Z,72.60
2017-04-16T03:52:56.813Z,72.60
2017-04-16T03:53:55.069Z,72.60
2017-04-16T03:54:53.342Z,73.00
2017-04-16T03:55:52.563Z,73.60
2017-04-16T03:56:50.837Z,73.00
2017-04-16T03:57:49.123Z,73.60
2017-04-16T03:58:47.405Z,73.00
2017-04-16T03:59:45.656Z,73.00
2017-04-16T04:00:43.965Z,73.40
2017-04-16T04:01:42.965Z,72.90
2017-04-16T04:02:42.066Z,73.10
2017-04-16T04:03:39.589Z,72.90
2017-04-16T04:04:37.891Z,72.90
2017-04-16T04:05:36.137Z,73.00
2017-04-16T04:06:34.404Z,73.00
2017-04-16T04:07:32.677Z,73.10
2017-04-16T04:08:30.974Z,73.10
2017-04-16T04:09:29.217Z,73.10
2017-04-16T04:10:27.501Z,73.20
2017-04-16T04:11:25.774Z,73.20
2017-04-16T04:12:24.022Z,73.10
2017-04-16T04:13:23.014Z,73.70
2017-04-16T04:14:23.049Z,73.10
2017-04-16T04:15:21.321Z,73.00
2017-04-16T04:16:19.589Z,73.00
2017-04-16T04:17:17.849Z,73.00
2017-04-16T04:18:16.093Z,73.00
2017-04-16T04:19:14.345Z,72.90
2017-04-16T04:20:12.650Z,73.60
2017-04-16T04:21:10.893Z,73.00
2017-04-16T04:22:09.113Z,73.70
2017-04-16T04:23:07.373Z,72.90
2017-04-16T04:24:05.675Z,73.00
2017-04-16T04:25:03.944Z,73.10
2017-04-16T04:26:02.358Z,73.40
2017-04-16T04:27:00.621Z,73.60
2017-04-16T04:27:58.922Z,73.70
2017-04-16T04:28:57.217Z,73.70
2017-04-16T04:29:55.474Z,73.90
2017-04-16T04:30:53.800Z,73.90
2017-04-16T04:31:52.109Z,74.00
2017-04-16T04:32:50.357Z,74.00
2017-04-16T04:33:49.361Z,74.20
2017-04-16T04:34:47.650Z,74.20
2017-04-16T04:35:45.937Z,74.20
2017-04-16T04:36:44.193Z,74.10
2017-04-16T04:37:42.515Z,74.20
2017-04-16T04:38:40.773Z,74.10
2017-04-16T04:39:38.984Z,74.10
2017-04-16T04:40:37.222Z,74.10
2017-04-16T04:41:35.520Z,74.10
2017-04-16T04:42:33.758Z,74.00
2017-04-16T04:43:32.064Z,74.00
2017-04-16T04:44:30.289Z,73.90
2017-04-16T04:45:28.565Z,74.00
2017-04-16T04:46:26.797Z,74.00
2017-04-16T04:47:25.069Z,74.00
2017-04-16T04:48:23.350Z,73.90
2017-04-16T04:49:21.727Z,73.90
2017-04-16T04:50:19.968Z,74.00
2017-04-16T04:51:18.221Z,73.90
2017-04-16T04:52:16.469Z,73.90
2017-04-16T04:53:14.772Z,73.90
2017-04-16T04:54:13.011Z,73.90
2017-04-16T04:55:11.273Z,74.50
2017-04-16T04:56:10.279Z,73.80
2017-04-16T04:57:08.520Z,73.80
2017-04-16T04:58:06.760Z,73.70
2017-04-16T04:59:04.989Z,73.70
2017-04-16T05:00:03.245Z,73.70
2017-04-16T05:01:02.241Z,73.70
2017-04-16T05:02:00.510Z,73.70
2017-04-16T05:02:58.773Z,73.60
2017-04-16T05:03:57.066Z,73.50
2017-04-16T05:04:55.339Z,73.60
2017-04-16T05:05:53.589Z,73.50
2017-04-16T05:06:51.853Z,73.40
2017-04-16T05:07:50.434Z,73.40
2017-04-16T05:08:48.673Z,73.40
2017-04-16T05:09:47.657Z,73.40
2017-04-16T05:10:45.946Z,73.40
2017-04-16T05:11:44.233Z,73.30
2017-04-16T05:12:42.509Z,73.30
2017-04-16T05:13:40.846Z,73.20
2017-04-16T05:14:39.114Z,73.20
2017-04-16T05:15:37.356Z,73.10
2017-04-16T05:16:35.618Z,73.10
2017-04-16T05:17:33.875Z,73.10
2017-04-16T05:18:32.877Z,72.90
2017-04-16T05:19:31.138Z,73.00
2017-04-16T05:20:29.398Z,73.00
2017-04-16T05:21:27.667Z,72.90
2017-04-16T05:22:25.910Z,73.50
2017-04-16T05:23:24.161Z,72.80
2017-04-16T05:24:22.442Z,72.80
2017-04-16T05:25:21.790Z,73.50
2017-04-16T05:26:20.104Z,72.80
2017-04-16T05:27:19.937Z,72.70
2017-04-16T05:28:18.316Z,72.70
2017-04-16T05:29:17.382Z,72.50
2017-04-16T05:30:15.801Z,72.60
2017-04-16T05:31:14.152Z,72.50
2017-04-16T05:32:12.539Z,72.40
2017-04-16T05:33:10.915Z,72.30
2017-04-16T05:34:09.306Z,72.30
2017-04-16T05:35:07.729Z,72.10
2017-04-16T05:36:07.013Z,72.10
2017-04-16T05:37:05.390Z,72.00
2017-04-16T05:38:03.801Z,72.10
2017-04-16T05:39:02.214Z,71.90
2017-04-16T05:40:00.653Z,71.80
2017-04-16T05:40:59.045Z,71.70
2017-04-16T05:41:57.353Z,71.70
2017-04-16T05:42:55.654Z,71.70
2017-04-16T05:43:53.949Z,71.70
2017-04-16T05:44:52.213Z,71.60
2017-04-16T05:45:50.485Z,71.60
2017-04-16T05:46:48.803Z,71.60
2017-04-16T05:47:47.187Z,72.20
2017-04-16T05:48:45.560Z,71.60
2017-04-16T05:49:43.907Z,71.50
2017-04-16T05:50:42.853Z,71.40
2017-04-16T05:51:41.506Z,71.30
2017-04-16T05:52:39.794Z,71.30
2017-04-16T05:53:38.098Z,71.20
2017-04-16T05:54:37.095Z,71.10
2017-04-16T05:55:35.417Z,71.00
2017-04-16T05:56:33.693Z,70.90
2017-04-16T05:57:31.980Z,70.80
2017-04-16T05:58:30.625Z,70.80
2017-04-16T05:59:28.920Z,70.70
2017-04-16T06:00:27.946Z,70.70
2017-04-16T06:01:26.201Z,70.60
2017-04-16T06:02:28.004Z,70.60
2017-04-16T06:03:26.601Z,70.80
2017-04-16T06:04:26.943Z,70.70
2017-04-16T06:05:26.107Z,70.70
2017-04-16T06:06:24.410Z,70.60
2017-04-16T06:07:22.733Z,70.60
2017-04-16T06:08:21.002Z,70.70
2017-04-16T06:09:19.263Z,70.60
2017-04-16T06:10:18.302Z,70.60
2017-04-16T06:11:16.625Z,70.50
2017-04-16T06:12:14.975Z,70.60
2017-04-16T06:13:13.960Z,70.40
2017-04-16T06:14:12.685Z,70.20
2017-04-16T06:15:11.232Z,70.00
2017-04-16T06:16:10.360Z,70.00
2017-04-16T06:17:09.064Z,69.90
2017-04-16T06:18:13.776Z,69.90
2017-04-16T06:19:12.062Z,69.80
2017-04-16T06:20:10.397Z,69.80
2017-04-16T06:21:08.825Z,69.90
2017-04-16T06:22:07.102Z,69.80
2017-04-16T06:23:05.402Z,69.70
2017-04-16T06:24:03.693Z,69.50
2017-04-16T06:25:02.051Z,69.40
2017-04-16T06:26:01.054Z,69.20
2017-04-16T06:26:59.341Z,69.10
2017-04-16T06:27:57.613Z,69.70
2017-04-16T06:28:56.001Z,68.90
2017-04-16T06:29:54.257Z,68.80
2017-04-16T06:30:52.506Z,68.80
2017-04-16T06:31:50.813Z,68.70
2017-04-16T06:32:49.065Z,68.60
2017-04-16T06:33:47.345Z,68.40
2017-04-16T06:34:45.649Z,68.40
2017-04-16T06:35:43.899Z,68.40
2017-04-16T06:36:42.181Z,69.00
2017-04-16T06:37:40.542Z,68.30
2017-04-16T06:38:38.838Z,68.10
2017-04-16T06:39:37.078Z,68.20
2017-04-16T06:40:35.333Z,68.20
2017-04-16T06:41:33.598Z,68.10
2017-04-16T06:42:31.866Z,68.10
2017-04-16T06:43:30.109Z,68.00
2017-04-16T06:44:28.399Z,68.00
2017-04-16T06:45:27.397Z,68.00
2017-04-16T06:46:25.680Z,68.10
2017-04-16T06:47:24.003Z,68.10
2017-04-16T06:48:22.248Z,67.90
2017-04-16T06:49:20.535Z,67.80
2017-04-16T06:50:18.804Z,67.80
2017-04-16T06:51:18.134Z,67.80
2017-04-16T06:52:17.157Z,67.90
2017-04-16T06:53:15.378Z,67.80
2017-04-16T06:54:13.637Z,67.70
2017-04-16T06:55:11.892Z,67.70
2017-04-16T06:56:10.166Z,68.20
2017-04-16T06:57:08.421Z,67.50
2017-04-16T06:58:06.685Z,67.70
2017-04-16T06:59:04.978Z,67.70
2017-04-16T07:00:03.288Z,67.50
2017-04-16T07:01:02.308Z,67.30
2017-04-16T07:02:00.596Z,67.10
2017-04-16T07:02:59.582Z,67.10
2017-04-16T07:03:59.489Z,67.10
2017-04-16T07:04:58.457Z,67.20
2017-04-16T07:05:57.462Z,67.00
2017-04-16T07:06:56.330Z,67.00
2017-04-16T07:07:55.747Z,67.00
2017-04-16T07:08:54.061Z,67.10
2017-04-16T07:09:52.914Z,67.10
2017-04-16T07:10:52.443Z,67.00
2017-04-16T07:11:50.904Z,67.00
2017-04-16T07:12:49.411Z,66.90
2017-04-16T07:13:48.136Z,66.50
2017-04-16T07:14:46.810Z,66.10
2017-04-16T07:15:45.939Z,65.80
2017-04-16T07:16:44.386Z,65.80
2017-04-16T07:17:42.910Z,65.90
2017-04-16T07:18:42.024Z,65.90
2017-04-16T07:19:40.349Z,65.90
2017-04-16T07:20:38.651Z,65.90
2017-04-16T07:21:37.759Z,65.90
2017-04-16T07:22:36.079Z,66.50
2017-04-16T07:23:35.166Z,65.80
2017-04-16T07:24:33.564Z,65.80
2017-04-16T07:25:31.898Z,65.90
2017-04-16T07:26:30.231Z,66.00
2017-04-16T07:27:28.702Z,66.00
2017-04-16T07:28:27.040Z,66.00
2017-04-16T07:29:25.403Z,66.70
2017-04-16T07:30:23.718Z,65.90
2017-04-16T07:31:22.022Z,65.60
2017-04-16T07:32:20.339Z,65.60
2017-04-16T07:33:18.686Z,65.40
2017-04-16T07:34:16.986Z,65.30
2017-04-16T07:35:15.558Z,65.10
2017-04-16T07:36:13.865Z,65.00
2017-04-16T07:37:12.234Z,65.20
2017-04-16T07:38:10.805Z,65.00
2017-04-16T07:39:09.206Z,65.70
2017-04-16T07:40:07.661Z,65.10
2017-04-16T07:41:06.235Z,64.90
2017-04-16T07:42:04.954Z,65.00
2017-04-16T07:43:03.700Z,65.10
2017-04-16T07:44:02.232Z,65.30
2017-04-16T07:45:00.594Z,65.10
2017-04-16T07:45:58.980Z,65.00
2017-04-16T07:46:57.619Z,64.90
2017-04-16T07:47:55.953Z,63.80
2017-04-16T07:48:54.266Z,63.80
2017-04-16T07:49:53.084Z,63.80
2017-04-16T07:50:51.566Z,63.70
2017-04-16T07:51:49.985Z,63.50
2017-04-16T07:52:49.027Z,63.40
2017-04-16T07:53:47.330Z,63.30
2017-04-16T07:54:45.725Z,63.30
2017-04-16T07:55:44.008Z,63.40
2017-04-16T07:56:42.322Z,63.40
2017-04-16T07:57:40.585Z,63.10
2017-04-16T07:58:38.882Z,63.10
2017-04-16T07:59:37.205Z,62.90
2017-04-16T08:00:35.545Z,62.70
2017-04-16T08:01:33.846Z,62.60
2017-04-16T08:02:32.264Z,62.60
2017-04-16T08:03:30.736Z,62.60
2017-04-16T08:04:32.210Z,62.60
2017-04-16T08:05:30.702Z,62.60
2017-04-16T08:06:29.143Z,62.40
2017-04-16T08:07:28.753Z,62.40
2017-04-16T08:08:27.049Z,62.30
2017-04-16T08:09:25.533Z,62.10
2017-04-16T08:10:23.886Z,62.20
2017-04-16T08:11:22.852Z,61.70
2017-04-16T08:12:21.357Z,62.40
2017-04-16T08:13:19.758Z,62.10
2017-04-16T08:14:18.123Z,61.90
2017-04-16T08:15:16.397Z,61.80
2017-04-16T08:16:14.671Z,61.70
2017-04-16T08:17:12.960Z,61.60
2017-04-16T08:18:11.350Z,61.10
2017-04-16T08:19:09.677Z,61.10
2017-04-16T08:20:08.740Z,61.30
2017-04-16T08:21:07.018Z,61.60
2017-04-16T08:22:05.418Z,61.60
2017-04-16T08:23:03.666Z,61.30
2017-04-16T08:24:02.355Z,61.00
2017-04-16T08:25:00.710Z,61.00
2017-04-16T08:25:59.080Z,60.90
2017-04-16T08:26:58.731Z,61.00
2017-04-16T08:28:06.481Z,61.70
2017-04-16T08:29:20.808Z,60.90
2017-04-16T08:30:20.457Z,60.70
2017-04-16T08:31:18.874Z,61.50
2017-04-16T08:32:17.215Z,60.50
2017-04-16T08:33:15.596Z,60.50
2017-04-16T08:34:13.870Z,60.60
2017-04-16T08:35:12.139Z,60.60
2017-04-16T08:36:10.399Z,60.40
2017-04-16T08:37:08.714Z,60.40
2017-04-16T08:38:06.953Z,60.00
2017-04-16T08:39:05.298Z,59.20
2017-04-16T08:40:03.570Z,59.70
2017-04-16T08:41:01.830Z,59.50
2017-04-16T08:42:00.130Z,59.20
2017-04-16T08:42:58.425Z,59.00
2017-04-16T08:43:58.681Z,58.60
2017-04-16T08:44:57.029Z,58.30
2017-04-16T08:45:55.329Z,59.30
2017-04-16T08:46:53.841Z,58.90
2017-04-16T08:47:53.793Z,58.70
2017-04-16T08:48:56.215Z,58.20
2017-04-16T08:50:00.978Z,57.70
2017-04-16T08:50:59.305Z,57.70
2017-04-16T08:51:57.577Z,57.60
2017-04-16T08:52:57.656Z,57.60
2017-04-16T08:53:55.953Z,57.60
2017-04-16T08:54:55.362Z,57.70
2017-04-16T08:55:53.797Z,57.70
2017-04-16T08:56:52.164Z,58.10
2017-04-16T08:57:50.460Z,58.10
2017-04-16T08:58:49.481Z,58.10
2017-04-16T08:59:47.866Z,57.70
2017-04-16T09:00:46.832Z,57.80
2017-04-16T09:02:21.978Z,57.20
2017-04-16T09:03:20.240Z,56.90
2017-04-16T09:04:18.465Z,57.20
2017-04-16T09:05:16.733Z,57.50
2017-04-16T09:06:14.988Z,57.10
2017-04-16T09:07:14.385Z,56.00
2017-04-16T09:08:12.609Z,56.50
2017-04-16T09:09:10.863Z,56.00
2017-04-16T09:10:09.099Z,56.30
2017-04-16T09:11:07.374Z,57.20
2017-04-16T09:12:05.609Z,56.60
2017-04-16T09:13:03.863Z,56.00
2017-04-16T09:14:02.089Z,56.20
2017-04-16T09:15:01.124Z,55.80
2017-04-16T09:15:59.353Z,55.60
2017-04-16T09:16:57.601Z,55.20
2017-04-16T09:17:55.823Z,54.60
2017-04-16T09:18:54.074Z,54.90
2017-04-16T09:19:53.325Z,54.90
2017-04-16T09:20:51.567Z,55.10
2017-04-16T09:21:49.806Z,55.10
2017-04-16T09:22:48.093Z,54.80
2017-04-16T09:23:46.310Z,54.70
2017-04-16T09:24:44.553Z,55.00
2017-04-16T09:25:42.793Z,54.90
2017-04-16T09:26:41.131Z,54.80
2017-04-16T09:27:39.382Z,54.50
2017-04-16T09:28:37.622Z,54.70
2017-04-16T09:29:35.851Z,54.60
2017-04-16T09:30:34.093Z,54.90
2017-04-16T09:31:32.386Z,55.10
2017-04-16T09:32:30.645Z,55.00
2017-04-16T09:33:28.913Z,55.10
2017-04-16T09:34:27.170Z,54.80
2017-04-16T09:35:25.387Z,54.70
2017-04-16T09:36:23.633Z,54.80
2017-04-16T09:37:21.854Z,54.90
2017-04-16T09:38:20.130Z,54.50
2017-04-16T09:39:18.390Z,54.00
2017-04-16T09:40:16.646Z,54.10
2017-04-16T09:41:14.912Z,53.90
2017-04-16T09:42:13.163Z,53.80
2017-04-16T09:43:12.357Z,53.60
2017-04-16T09:44:12.358Z,53.70
2017-04-16T09:45:11.578Z,53.80
2017-04-16T09:46:10.367Z,53.90
2017-04-16T09:47:08.825Z,53.80
2017-04-16T09:48:07.229Z,53.90
2017-04-16T09:49:05.563Z,54.40
2017-04-16T09:50:03.913Z,53.80
2017-04-16T09:51:02.186Z,53.90
2017-04-16T09:52:00.435Z,53.80
2017-04-16T09:52:58.769Z,54.10
2017-04-16T09:53:57.178Z,54.30
2017-04-16T09:54:55.405Z,54.50
2017-04-16T09:55:53.673Z,54.30
2017-04-16T09:56:51.988Z,53.90
2017-04-16T09:57:50.229Z,53.50
2017-04-16T09:58:48.539Z,53.40
2017-04-16T09:59:46.769Z,52.90
2017-04-16T10:00:45.749Z,52.90
2017-04-16T10:01:44.028Z,52.80
2017-04-16T10:02:42.353Z,52.90
2017-04-16T10:03:40.630Z,52.70
2017-04-16T10:04:38.881Z,52.60
2017-04-16T10:05:37.152Z,53.00
2017-04-16T10:06:35.511Z,53.50
2017-04-16T10:07:33.827Z,53.80
2017-04-16T10:08:32.168Z,54.40
2017-04-16T10:09:30.412Z,54.80
2017-04-16T10:10:28.704Z,54.90
2017-04-16T10:11:27.023Z,55.00
2017-04-16T10:12:25.249Z,55.40
2017-04-16T10:13:23.753Z,55.60
2017-04-16T10:14:22.053Z,55.90
2017-04-16T10:15:20.307Z,56.10
2017-04-16T10:16:18.547Z,56.10
2017-04-16T10:17:16.808Z,56.10
2017-04-16T10:18:15.106Z,56.30
2017-04-16T10:19:13.333Z,56.40
2017-04-16T10:20:11.616Z,56.50
2017-04-16T10:21:09.908Z,57.00
2017-04-16T10:22:08.161Z,57.20
2017-04-16T10:23:06.638Z,57.20
2017-04-16T10:24:04.873Z,57.20
2017-04-16T10:25:03.430Z,57.20
2017-04-16T10:26:01.690Z,57.20
2017-04-16T10:26:59.949Z,56.50
2017-04-16T10:27:58.214Z,56.40
2017-04-16T10:28:57.233Z,56.40
2017-04-16T10:29:55.531Z,56.20
2017-04-16T10:30:53.801Z,56.30
2017-04-16T10:31:52.902Z,56.40
2017-04-16T10:32:53.131Z,56.50
2017-04-16T10:33:51.621Z,56.10
2017-04-16T10:34:49.868Z,56.00
2017-04-16T10:35:48.129Z,56.10
2017-04-16T10:36:46.380Z,56.10
2017-04-16T10:37:44.645Z,56.30
2017-04-16T10:38:42.969Z,56.10
2017-04-16T10:39:41.392Z,55.90
2017-04-16T10:40:39.665Z,56.00
2017-04-16T10:41:37.953Z,56.20
2017-04-16T10:42:36.199Z,56.70
2017-04-16T10:43:34.617Z,57.00
2017-04-16T10:44:33.346Z,57.30
2017-04-16T10:45:31.696Z,57.50
2017-04-16T10:46:29.996Z,57.70
2017-04-16T10:47:29.025Z,58.00
2017-04-16T10:48:27.297Z,58.30
2017-04-16T10:49:25.583Z,58.50
2017-04-16T10:50:23.869Z,59.40
2017-04-16T10:51:22.125Z,59.00
2017-04-16T10:52:21.054Z,59.30
2017-04-16T10:53:19.343Z,59.70
2017-04-16T10:54:17.809Z,59.90
2017-04-16T10:55:16.108Z,60.70
2017-04-16T10:56:14.361Z,60.70
2017-04-16T10:57:12.628Z,60.70
2017-04-16T10:58:10.901Z,60.90
2017-04-16T10:59:09.194Z,61.70
2017-04-16T11:00:07.497Z,60.80
2017-04-16T11:01:05.802Z,60.80
2017-04-16T11:02:04.071Z,60.70
2017-04-16T11:03:02.358Z,60.70
2017-04-16T11:04:00.608Z,60.70
2017-04-16T11:04:58.833Z,60.80
2017-04-16T11:05:57.081Z,61.10
2017-04-16T11:06:55.300Z,61.10
2017-04-16T11:07:53.545Z,61.10
2017-04-16T11:08:52.513Z,61.00
2017-04-16T11:09:50.806Z,60.80
2017-04-16T11:10:49.801Z,60.70
2017-04-16T11:11:48.047Z,60.70
2017-04-16T11:12:46.262Z,60.80
2017-04-16T11:13:44.500Z,60.70
2017-04-16T11:14:42.753Z,60.60
2017-04-16T11:15:41.035Z,60.70
2017-04-16T11:16:39.278Z,60.90
2017-04-16T11:17:37.633Z,60.90
2017-04-16T11:18:35.893Z,61.00
2017-04-16T11:19:34.829Z,61.00
2017-04-16T11:20:33.117Z,61.00
2017-04-16T11:21:31.396Z,60.50
2017-04-16T11:22:29.623Z,60.20
2017-04-16T11:23:27.850Z,60.00
2017-04-16T11:24:26.872Z,60.80
2017-04-16T11:25:25.141Z,60.40
2017-04-16T11:26:23.373Z,60.30
2017-04-16T11:27:21.693Z,60.50
2017-04-16T11:28:19.973Z,60.60
2017-04-16T11:29:18.238Z,60.40
2017-04-16T11:30:16.469Z,60.60
2017-04-16T11:31:14.733Z,59.50
2017-04-16T11:32:12.982Z,59.50
2017-04-16T11:33:11.250Z,59.50
2017-04-16T11:34:09.501Z,59.40
2017-04-16T11:35:07.789Z,59.30
2017-04-16T11:36:06.057Z,59.30
2017-04-16T11:37:04.302Z,59.40
2017-04-16T11:38:02.654Z,59.90
2017-04-16T11:39:00.940Z,58.80
2017-04-16T11:39:59.198Z,58.90
2017-04-16T11:40:57.453Z,59.00
2017-04-16T11:41:55.712Z,59.10
2017-04-16T11:42:54.002Z,59.20
2017-04-16T11:43:52.247Z,59.10
2017-04-16T11:44:50.537Z,58.70
2017-04-16T11:45:48.793Z,58.50
2017-04-16T11:46:47.065Z,58.10
2017-04-16T11:47:45.325Z,57.80
2017-04-16T11:48:43.685Z,57.80
2017-04-16T11:49:41.951Z,57.90
2017-04-16T11:50:40.241Z,58.20
2017-04-16T11:51:39.265Z,58.40
2017-04-16T11:52:37.681Z,58.70
2017-04-16T11:53:36.054Z,58.70
2017-04-16T11:54:34.357Z,58.30
2017-04-16T11:55:32.602Z,57.90
2017-04-16T11:56:30.871Z,57.60
2017-04-16T11:57:29.138Z,57.70
2017-04-16T11:58:27.417Z,57.70
2017-04-16T11:59:25.630Z,57.90
2017-04-16T12:00:23.929Z,57.70
2017-04-16T12:01:22.568Z,57.70
2017-04-16T12:02:21.616Z,57.70
2017-04-16T12:03:21.655Z,57.50
2017-04-16T12:04:19.910Z,57.60
2017-04-16T12:05:18.193Z,57.70
2017-04-16T12:06:16.469Z,57.90
2017-04-16T12:07:14.751Z,58.60
2017-04-16T12:08:14.010Z,58.20
2017-04-16T12:09:12.329Z,58.40
2017-04-16T12:10:10.655Z,58.50
2017-04-16T12:11:09.649Z,58.40
2017-04-16T12:12:07.939Z,58.40
2017-04-16T12:13:06.301Z,58.40
2017-04-16T12:14:04.595Z,58.40
2017-04-16T12:15:02.913Z,58.20
2017-04-16T12:16:01.178Z,58.20
2017-04-16T12:16:59.469Z,58.30
2017-04-16T12:17:57.796Z,58.10
2017-04-16T12:18:56.086Z,58.00
2017-04-16T12:19:55.211Z,57.80
2017-04-16T12:20:53.490Z,57.80
2017-04-16T12:21:52.524Z,57.80
2017-04-16T12:22:50.790Z,57.70
2017-04-16T12:23:49.198Z,57.50
2017-04-16T12:24:48.206Z,56.30
2017-04-16T12:25:46.504Z,56.80
2017-04-16T12:26:44.793Z,57.00
2017-04-16T12:27:43.070Z,56.90
2017-04-16T12:28:41.331Z,56.90
2017-04-16T12:29:39.605Z,56.60
2017-04-16T12:30:37.853Z,56.40
2017-04-16T12:31:36.239Z,56.40
2017-04-16T12:32:34.863Z,56.50
2017-04-16T12:33:33.230Z,56.40